Time;durP1;ratioP1;P1;durP2;ratioP2;P2;SDS_P1;SDS_P2;PMS_P1;PMS_P2;Temp;Humidity;BMP_temperature;BMP_pressure;BME280_temperature;BME280_humidity;BME280_pressure;Samples;Min_cycle;Max_cycle;Signal;HPM_P1;HPM_P2
2022/01/07 00:02:16;;;;;;;;;;;14.30;99.90;;;;;;4996237;28;779;-45
2022/01/07 00:04:42;;;;;;;;;;;14.20;99.90;;;;;;4996099;28;823;-45
2022/01/07 00:07:09;;;;;;;;;;;14.10;99.90;;;;;;4998504;28;865;-45
2022/01/07 00:09:37;;;;;;;;;;;14.10;99.90;;;;;;4999979;28;776;-45
2022/01/07 00:12:04;;;;;;;;;;;14.00;99.90;;;;;;5000407;28;1124;-45
2022/01/07 00:14:30;;;;;;;;;;;14.00;99.90;;;;;;4998135;28;902;-45
2022/01/07 00:16:56;;;;;;;;;;;13.90;99.90;;;;;;4998337;28;913;-44
2022/01/07 00:19:22;;;;;;;;;;;13.90;99.90;;;;;;4998211;28;1956;-45
2022/01/07 00:21:48;;;;;;;;;;;13.90;99.90;;;;;;4998223;28;892;-45
2022/01/07 00:24:14;;;;;;;;;;;13.80;99.90;;;;;;4998053;28;972;-45
2022/01/07 00:26:41;;;;;;;;;;;13.80;99.90;;;;;;4998101;28;1000;-45
2022/01/07 00:29:06;;;;;;;;;;;13.70;99.90;;;;;;4998026;28;1041;-45
2022/01/07 00:31:33;;;;;;;;;;;13.70;99.90;;;;;;4997795;28;909;-45
2022/01/07 00:33:59;;;;;;;;;;;13.70;99.90;;;;;;5013299;28;924;-45
2022/01/07 00:36:25;;;;;;;;;;;13.60;99.90;;;;;;4998007;28;864;-54
2022/01/07 00:38:52;;;;;;;;;;;13.60;99.90;;;;;;4997786;28;1914;-55
2022/01/07 00:41:18;;;;;;;;;;;13.60;99.90;;;;;;4997241;28;1018;-55
2022/01/07 00:43:45;;;;;;;;;;;13.50;99.90;;;;;;4997880;28;777;-55
2022/01/07 00:46:11;;;;;;;;;;;13.50;99.90;;;;;;4998820;28;1208;-54
2022/01/07 00:48:39;;;;;;;;;;;13.50;99.90;;;;;;4997073;28;975;-55
2022/01/07 00:51:09;;;;;;;;;;;13.50;99.90;;;;;;4999154;28;1000;-54
2022/01/07 00:53:41;;;;;;;;;;;13.40;99.90;;;;;;4999477;28;962;-45
2022/01/07 00:56:08;;;;;;;;;;;13.40;99.90;;;;;;5000281;28;906;-45
2022/01/07 00:58:34;;;;;;;;;;;13.40;99.90;;;;;;4979296;28;1974;-45
2022/01/07 01:01:00;;;;;;;;;;;13.30;99.90;;;;;;4962657;28;950;-45
2022/01/07 01:03:26;;;;;;;;;;;13.30;99.90;;;;;;4979202;28;945;-46
2022/01/07 01:06:00;;;;;;;;;;;13.30;99.90;;;;;;4964170;28;942;-55
2022/01/07 01:08:26;;;;;;;;;;;13.20;99.90;;;;;;4980222;28;1323;-55
2022/01/07 01:10:53;;;;;;;;;;;13.20;99.90;;;;;;4990346;22;1648;-54
2022/01/07 01:13:24;;;;;;;;;;;13.20;99.90;;;;;;5043514;28;1172;-54
2022/01/07 01:15:51;;;;;;;;;;;13.10;99.90;;;;;;5037542;28;998;-54
2022/01/07 01:18:19;;;;;;;;;;;13.10;99.90;;;;;;5038340;28;986;-46
2022/01/07 01:20:45;;;;;;;;;;;13.10;99.90;;;;;;5054087;28;754;-55
2022/01/07 01:23:12;;;;;;;;;;;13.10;99.90;;;;;;5048327;28;879;-50
2022/01/07 01:25:56;;;;;;;;;;;13.10;99.90;;;;;;5058148;28;811;-45
2022/01/07 01:28:22;;;;;;;;;;;13.00;99.90;;;;;;5057135;28;868;-55
2022/01/07 01:30:50;;;;;;;;;;;13.00;99.90;;;;;;5042043;28;986;-46
2022/01/07 01:33:18;;;;;;;;;;;13.00;99.90;;;;;;5038624;28;842;-45
2022/01/07 01:35:45;;;;;;;;;;;13.00;99.90;;;;;;5021657;28;751;-45
2022/01/07 01:38:12;;;;;;;;;;;13.00;99.90;;;;;;5038057;28;1241;-45
2022/01/07 01:40:39;;;;;;;;;;;12.90;99.90;;;;;;5038574;28;1894;-45
2022/01/07 01:43:06;;;;;;;;;;;12.90;99.90;;;;;;5021083;28;888;-45
2022/01/07 01:45:35;;;;;;;;;;;12.90;99.90;;;;;;5038141;28;904;-45
2022/01/07 01:48:03;;;;;;;;;;;12.90;99.90;;;;;;5038209;28;978;-45
2022/01/07 01:50:31;;;;;;;;;;;12.80;99.90;;;;;;5038424;28;1183;-55
2022/01/07 01:52:59;;;;;;;;;;;12.80;99.90;;;;;;5037834;28;853;-45
2022/01/07 01:55:26;;;;;;;;;;;12.80;99.90;;;;;;5003160;28;1311;-55
2022/01/07 01:57:53;;;;;;;;;;;12.80;99.90;;;;;;5008005;28;977;-55
2022/01/07 02:00:21;;;;;;;;;;;12.80;99.90;;;;;;5056343;28;1963;-45
2022/01/07 02:02:48;;;;;;;;;;;12.70;99.90;;;;;;5021377;28;907;-45
2022/01/07 02:05:16;;;;;;;;;;;12.70;99.90;;;;;;5056066;28;964;-45
2022/01/07 02:07:43;;;;;;;;;;;12.70;99.90;;;;;;5039411;28;1136;-45
2022/01/07 02:10:29;;;;;;;;;;;12.70;99.90;;;;;;5016528;28;845;-45
2022/01/07 02:12:56;;;;;;;;;;;12.60;99.90;;;;;;5014978;28;1188;-45
2022/01/07 02:15:23;;;;;;;;;;;12.60;99.90;;;;;;5016522;28;931;-45
2022/01/07 02:17:50;;;;;;;;;;;12.60;99.90;;;;;;4984176;28;942;-45
2022/01/07 02:20:18;;;;;;;;;;;12.60;99.90;;;;;;4967728;28;1902;-45
2022/01/07 02:22:46;;;;;;;;;;;12.60;99.90;;;;;;5016052;28;898;-45
2022/01/07 02:25:13;;;;;;;;;;;12.50;99.90;;;;;;5016345;28;972;-45
2022/01/07 02:27:42;;;;;;;;;;;12.50;99.90;;;;;;5015274;28;931;-45
2022/01/07 02:30:11;;;;;;;;;;;12.50;99.90;;;;;;4982857;28;1008;-45
2022/01/07 02:32:37;;;;;;;;;;;12.50;99.90;;;;;;5016237;28;813;-45
2022/01/07 02:35:11;;;;;;;;;;;12.50;99.90;;;;;;5016069;28;1030;-45
2022/01/07 02:37:39;;;;;;;;;;;12.50;99.90;;;;;;5016091;28;837;-45
2022/01/07 02:40:06;;;;;;;;;;;12.50;99.90;;;;;;5016259;28;1898;-49
2022/01/07 02:42:36;;;;;;;;;;;12.50;99.90;;;;;;5037291;28;843;-45
2022/01/07 02:45:21;;;;;;;;;;;12.40;99.90;;;;;;5036219;28;1387;-55
2022/01/07 02:47:54;;;;;;;;;;;12.40;99.90;;;;;;5037163;28;881;-56
2022/01/07 02:50:29;;;;;;;;;;;12.40;99.90;;;;;;5037001;28;1077;-55
2022/01/07 02:52:55;;;;;;;;;;;12.40;99.90;;;;;;5037449;28;766;-55
2022/01/07 02:55:22;;;;;;;;;;;12.40;99.90;;;;;;4987085;28;1303;-55
2022/01/07 02:57:50;;;;;;;;;;;12.40;99.90;;;;;;5037014;28;833;-56
2022/01/07 03:00:17;;;;;;;;;;;12.30;99.90;;;;;;5036833;28;1895;-55
2022/01/07 03:02:48;;;;;;;;;;;12.30;99.90;;;;;;5002323;28;1450;-55
2022/01/07 03:05:21;;;;;;;;;;;12.30;99.90;;;;;;5037534;28;873;-53
2022/01/07 03:07:48;;;;;;;;;;;12.30;99.90;;;;;;5036070;28;1184;-56
2022/01/07 03:10:16;;;;;;;;;;;12.30;99.90;;;;;;5035167;28;828;-54
2022/01/07 03:12:45;;;;;;;;;;;12.30;99.90;;;;;;5035799;28;1030;-55
2022/01/07 03:15:12;;;;;;;;;;;12.30;99.90;;;;;;5036312;28;806;-56
2022/01/07 03:17:40;;;;;;;;;;;12.30;99.90;;;;;;5036802;28;816;-55
2022/01/07 03:20:07;;;;;;;;;;;12.20;99.90;;;;;;5036743;28;1906;-56
2022/01/07 03:22:35;;;;;;;;;;;12.20;99.90;;;;;;5036777;28;790;-55
2022/01/07 03:25:07;;;;;;;;;;;12.20;99.90;;;;;;5004056;28;1060;-55
2022/01/07 03:27:38;;;;;;;;;;;12.20;99.90;;;;;;5036606;28;843;-56
2022/01/07 03:30:07;;;;;;;;;;;12.20;99.90;;;;;;4986060;28;1028;-55
2022/01/07 03:32:34;;;;;;;;;;;12.20;99.90;;;;;;5054909;28;767;-56
2022/01/07 03:35:00;;;;;;;;;;;12.10;99.90;;;;;;5053950;28;1122;-56
2022/01/07 03:37:28;;;;;;;;;;;12.10;99.90;;;;;;5054748;28;1095;-55
2022/01/07 03:39:54;;;;;;;;;;;12.10;99.90;;;;;;5054726;28;1910;-55
2022/01/07 03:42:20;;;;;;;;;;;12.10;99.90;;;;;;5044445;28;830;-56
2022/01/07 03:44:47;;;;;;;;;;;12.10;99.90;;;;;;5006198;28;894;-55
2022/01/07 03:47:14;;;;;;;;;;;12.10;99.90;;;;;;5040066;28;1338;-55
2022/01/07 03:49:42;;;;;;;;;;;12.10;99.90;;;;;;5023304;28;877;-55
2022/01/07 03:52:08;;;;;;;;;;;12.10;99.90;;;;;;5040587;28;814;-55
2022/01/07 03:54:34;;;;;;;;;;;12.10;99.90;;;;;;5022531;28;1797;-55
2022/01/07 03:57:02;;;;;;;;;;;12.00;99.90;;;;;;5039815;28;971;-55
2022/01/07 03:59:30;;;;;;;;;;;12.00;99.90;;;;;;5039676;28;1899;-55
2022/01/07 04:01:58;;;;;;;;;;;12.00;99.90;;;;;;5006409;28;940;-55
2022/01/07 04:04:25;;;;;;;;;;;12.00;99.90;;;;;;5040316;28;861;-55
2022/01/07 04:06:52;;;;;;;;;;;12.00;99.90;;;;;;5005403;28;1122;-55
2022/01/07 04:09:18;;;;;;;;;;;12.00;99.90;;;;;;5040232;28;814;-55
2022/01/07 04:11:46;;;;;;;;;;;12.00;99.90;;;;;;5039844;28;1140;-55
2022/01/07 04:14:13;;;;;;;;;;;12.00;99.90;;;;;;5039822;28;894;-55
2022/01/07 04:16:41;;;;;;;;;;;11.90;99.90;;;;;;5040300;28;914;-55
2022/01/07 04:19:08;;;;;;;;;;;12.00;99.90;;;;;;5039970;28;1973;-55
2022/01/07 04:21:34;;;;;;;;;;;11.90;99.90;;;;;;5005925;28;875;-55
2022/01/07 04:24:01;;;;;;;;;;;11.90;99.90;;;;;;5039876;28;871;-54
2022/01/07 04:26:28;;;;;;;;;;;11.90;99.90;;;;;;5039741;28;782;-45
2022/01/07 04:29:15;;;;;;;;;;;11.90;99.90;;;;;;5039678;28;706;-45
2022/01/07 04:31:42;;;;;;;;;;;11.90;99.90;;;;;;5039538;28;1173;-45
2022/01/07 04:34:09;;;;;;;;;;;11.90;99.90;;;;;;5005812;28;1067;-45
2022/01/07 04:36:37;;;;;;;;;;;11.90;99.90;;;;;;5039749;28;813;-45
2022/01/07 04:39:03;;;;;;;;;;;11.90;99.90;;;;;;5038880;28;1979;-45
2022/01/07 04:41:30;;;;;;;;;;;11.80;99.90;;;;;;5038693;28;846;-45
2022/01/07 04:43:56;;;;;;;;;;;11.80;99.90;;;;;;5039724;28;849;-45
2022/01/07 04:46:25;;;;;;;;;;;11.90;99.90;;;;;;5005627;28;943;-45
2022/01/07 04:48:52;;;;;;;;;;;11.80;99.90;;;;;;5039735;28;842;-46
2022/01/07 04:51:19;;;;;;;;;;;11.80;99.90;;;;;;5005167;28;917;-45
2022/01/07 04:53:46;;;;;;;;;;;11.80;99.90;;;;;;5004616;28;981;-45
2022/01/07 04:56:12;;;;;;;;;;;11.80;99.90;;;;;;5039144;28;924;-54
2022/01/07 04:58:39;;;;;;;;;;;11.80;99.90;;;;;;5005568;28;1368;-54
2022/01/07 05:01:06;;;;;;;;;;;11.80;99.90;;;;;;4987161;28;1970;-55
2022/01/07 05:03:33;;;;;;;;;;;11.80;99.90;;;;;;5039421;28;916;-55
2022/01/07 05:06:16;;;;;;;;;;;11.80;99.90;;;;;;5039005;28;1030;-55
2022/01/07 05:08:44;;;;;;;;;;;11.70;99.90;;;;;;5038437;28;903;-55
2022/01/07 05:11:12;;;;;;;;;;;11.70;99.90;;;;;;5038866;28;1037;-56
2022/01/07 05:13:38;;;;;;;;;;;11.70;99.90;;;;;;5038993;28;802;-55
2022/01/07 05:16:06;;;;;;;;;;;11.70;99.90;;;;;;5038190;28;995;-55
2022/01/07 05:18:34;;;;;;;;;;;11.70;99.90;;;;;;5004764;28;924;-55
2022/01/07 05:21:01;;;;;;;;;;;11.70;99.90;;;;;;5038700;28;1967;-55
2022/01/07 05:23:32;;;;;;;;;;;11.70;99.90;;;;;;5038853;28;772;-55
2022/01/07 05:26:18;;;;;;;;;;;11.70;99.90;;;;;;5010111;28;917;-55
2022/01/07 05:28:47;;;;;;;;;;;11.70;99.90;;;;;;5037816;28;989;-54
2022/01/07 05:31:13;;;;;;;;;;;11.60;99.90;;;;;;5015609;28;810;-55
2022/01/07 05:33:40;;;;;;;;;;;11.60;99.90;;;;;;5057392;28;891;-55
2022/01/07 05:36:06;;;;;;;;;;;11.60;99.90;;;;;;5051011;28;802;-55
2022/01/07 05:38:32;;;;;;;;;;;11.60;99.90;;;;;;5022348;28;1153;-55
2022/01/07 05:41:01;;;;;;;;;;;11.60;99.90;;;;;;5054641;28;1969;-55
2022/01/07 05:43:28;;;;;;;;;;;11.60;99.90;;;;;;5037706;28;903;-54
2022/01/07 05:45:57;;;;;;;;;;;11.60;99.90;;;;;;5037449;28;1056;-55
2022/01/07 05:48:23;;;;;;;;;;;11.60;99.90;;;;;;4971753;28;903;-55
2022/01/07 05:50:49;;;;;;;;;;;11.50;99.90;;;;;;5037387;28;1314;-55
2022/01/07 05:53:16;;;;;;;;;;;11.50;99.90;;;;;;5050051;28;1337;-55
2022/01/07 05:55:44;;;;;;;;;;;11.50;99.90;;;;;;5045344;28;1021;-55
2022/01/07 05:58:10;;;;;;;;;;;11.50;99.90;;;;;;5038266;28;881;-55
2022/01/07 06:00:36;;;;;;;;;;;11.50;99.90;;;;;;4987368;28;1985;-55
2022/01/07 06:03:04;;;;;;;;;;;11.50;99.90;;;;;;5038345;28;775;-55
2022/01/07 06:05:31;;;;;;;;;;;11.50;99.90;;;;;;5037420;28;1037;-54
2022/01/07 06:07:57;;;;;;;;;;;11.50;99.90;;;;;;5016700;28;1071;-54
2022/01/07 06:10:23;;;;;;;;;;;11.50;99.90;;;;;;5036560;28;1050;-55
2022/01/07 06:12:50;;;;;;;;;;;11.50;99.90;;;;;;5037468;28;1050;-55
2022/01/07 06:15:21;;;;;;;;;;;11.50;99.90;;;;;;5004991;28;1193;-55
2022/01/07 06:17:47;;;;;;;;;;;11.50;99.90;;;;;;5037841;28;777;-55
2022/01/07 06:20:15;;;;;;;;;;;11.50;99.90;;;;;;5037879;28;1975;-55
2022/01/07 06:22:41;;;;;;;;;;;11.50;99.90;;;;;;5020258;28;846;-55
2022/01/07 06:25:07;;;;;;;;;;;11.60;99.90;;;;;;4987226;28;971;-55
2022/01/07 06:27:34;;;;;;;;;;;11.60;99.90;;;;;;5037093;28;921;-55
2022/01/07 06:30:01;;;;;;;;;;;11.60;99.90;;;;;;5003336;28;1007;-54
2022/01/07 06:32:27;;;;;;;;;;;11.60;99.90;;;;;;5037865;28;907;-55
2022/01/07 06:34:53;;;;;;;;;;;11.60;99.90;;;;;;5037086;28;795;-55
2022/01/07 06:37:21;;;;;;;;;;;11.70;99.90;;;;;;5036770;28;928;-55
2022/01/07 06:39:47;;;;;;;;;;;11.70;99.90;;;;;;5036753;28;1973;-55
2022/01/07 06:42:14;;;;;;;;;;;11.70;99.90;;;;;;5036896;28;1149;-55
2022/01/07 06:44:41;;;;;;;;;;;11.70;99.90;;;;;;5036628;28;1273;-55
2022/01/07 06:47:10;;;;;;;;;;;11.80;99.90;;;;;;4971472;28;1052;-55
2022/01/07 06:49:38;;;;;;;;;;;11.80;99.90;;;;;;5036574;28;958;-56
2022/01/07 06:52:05;;;;;;;;;;;11.80;99.90;;;;;;5002949;28;991;-56
2022/01/07 06:54:31;;;;;;;;;;;11.80;99.90;;;;;;5002911;28;853;-55
2022/01/07 06:56:59;;;;;;;;;;;11.80;99.90;;;;;;5035814;28;1311;-55
2022/01/07 06:59:26;;;;;;;;;;;11.80;99.90;;;;;;5040575;28;1918;-45
2022/01/07 07:01:54;;;;;;;;;;;11.90;99.90;;;;;;5002802;28;927;-45
2022/01/07 07:04:20;;;;;;;;;;;11.90;99.90;;;;;;5036869;28;975;-45
2022/01/07 07:06:46;;;;;;;;;;;11.90;99.90;;;;;;5019266;28;930;-45
2022/01/07 07:09:15;;;;;;;;;;;11.90;99.90;;;;;;5036716;28;1103;-45
2022/01/07 07:11:43;;;;;;;;;;;12.00;99.90;;;;;;5046149;28;1093;-45
2022/01/07 07:14:10;;;;;;;;;;;12.00;99.90;;;;;;5036508;28;913;-44
2022/01/07 07:16:36;;;;;;;;;;;12.00;99.90;;;;;;5017959;28;1272;-45
2022/01/07 07:19:03;;;;;;;;;;;12.00;99.90;;;;;;5037042;28;800;-45
2022/01/07 07:21:32;;;;;;;;;;;12.00;99.90;;;;;;5036751;28;1910;-45
2022/01/07 07:23:59;;;;;;;;;;;12.10;99.90;;;;;;5001379;28;978;-45
2022/01/07 07:26:28;;;;;;;;;;;12.10;99.90;;;;;;5036730;28;785;-45
2022/01/07 07:28:54;;;;;;;;;;;12.10;99.90;;;;;;5035592;28;905;-45
2022/01/07 07:31:22;;;;;;;;;;;12.10;99.90;;;;;;5002386;28;1164;-45
2022/01/07 07:36:27;;;;;;;;;;;12.10;99.90;;;;;;5036505;28;853;-45
2022/01/07 07:38:55;;;;;;;;;;;12.10;99.90;;;;;;5035972;28;894;-45
2022/01/07 07:41:22;;;;;;;;;;;12.20;99.90;;;;;;5033138;28;1906;-45
2022/01/07 07:44:09;;;;;;;;;;;12.20;99.90;;;;;;5051273;28;1025;-45
2022/01/07 07:46:55;;;;;;;;;;;12.20;99.90;;;;;;5036456;28;1119;-45
2022/01/07 07:49:21;;;;;;;;;;;12.20;99.90;;;;;;4988780;28;1216;-55
2022/01/07 07:51:52;;;;;;;;;;;12.20;99.90;;;;;;5016242;28;1069;-55
2022/01/07 07:54:20;;;;;;;;;;;12.20;99.90;;;;;;5014830;28;1169;-54
2022/01/07 07:56:48;;;;;;;;;;;12.20;99.90;;;;;;5053573;28;843;-56
2022/01/07 07:59:16;;;;;;;;;;;12.20;99.90;;;;;;5050732;28;1364;-56
2022/01/07 08:01:43;;;;;;;;;;;12.20;99.90;;;;;;5003425;28;1966;-54
2022/01/07 08:04:12;;;;;;;;;;;12.20;99.90;;;;;;5020134;28;1040;-54
2022/01/07 08:06:40;;;;;;;;;;;12.20;99.90;;;;;;5020436;28;961;-55
2022/01/07 08:09:07;;;;;;;;;;;12.20;99.90;;;;;;5053854;28;1033;-55
2022/01/07 08:11:48;;;;;;;;;;;12.20;99.90;;;;;;5047985;28;1034;-55
2022/01/07 08:17:00;;;;;;;;;;;12.20;99.90;;;;;;5036255;28;795;-54
2022/01/07 08:19:36;;;;;;;;;;;12.20;99.90;;;;;;5035120;28;1898;-55
2022/01/07 08:22:02;;;;;;;;;;;12.20;99.90;;;;;;5018768;28;1227;-55
2022/01/07 08:24:36;;;;;;;;;;;12.20;99.90;;;;;;5036401;28;747;-55
2022/01/07 08:27:02;;;;;;;;;;;12.20;99.90;;;;;;4985679;28;964;-55
2022/01/07 08:29:31;;;;;;;;;;;12.20;99.90;;;;;;5039677;28;800;-55
2022/01/07 08:34:56;;;;;;;;;;;12.20;99.90;;;;;;5039828;28;855;-55
2022/01/07 08:37:24;;;;;;;;;;;12.20;99.90;;;;;;5039285;28;901;-55
2022/01/07 08:39:54;;;;;;;;;;;12.20;99.90;;;;;;5039755;28;1925;-55
2022/01/07 08:42:23;;;;;;;;;;;12.20;99.90;;;;;;5005449;28;927;-55
2022/01/07 08:44:52;;;;;;;;;;;12.30;99.90;;;;;;4988509;28;1185;-55
2022/01/07 08:47:21;;;;;;;;;;;12.30;99.90;;;;;;5038110;28;797;-55
2022/01/07 08:49:48;;;;;;;;;;;12.30;99.90;;;;;;5021493;28;867;-55
2022/01/07 08:52:15;;;;;;;;;;;12.30;99.90;;;;;;5022061;28;1246;-55
2022/01/07 08:54:43;;;;;;;;;;;12.30;99.90;;;;;;5038919;28;1313;-55
2022/01/07 08:57:10;;;;;;;;;;;12.30;99.90;;;;;;5039175;28;790;-55
2022/01/07 08:59:40;;;;;;;;;;;12.30;99.90;;;;;;5039028;28;1973;-55
2022/01/07 09:02:08;;;;;;;;;;;12.30;99.90;;;;;;5040079;28;1121;-54
2022/01/07 09:04:34;;;;;;;;;;;12.30;99.90;;;;;;5044722;28;1283;-54
2022/01/07 09:07:00;;;;;;;;;;;12.30;99.90;;;;;;5044621;28;1372;-55
2022/01/07 09:09:27;;;;;;;;;;;12.30;99.90;;;;;;5039975;28;1416;-54
2022/01/07 09:11:54;;;;;;;;;;;12.30;99.90;;;;;;5038393;28;1202;-55
2022/01/07 09:14:21;;;;;;;;;;;12.30;99.90;;;;;;5020532;28;1495;-45
2022/01/07 09:16:48;;;;;;;;;;;12.30;99.90;;;;;;5039516;28;1166;-45
2022/01/07 09:19:16;;;;;;;;;;;12.30;99.90;;;;;;5055171;28;869;-45
2022/01/07 09:21:43;;;;;;;;;;;12.30;99.90;;;;;;5056308;28;1977;-45
2022/01/07 09:24:09;;;;;;;;;;;12.30;99.90;;;;;;5022757;28;941;-45
2022/01/07 09:26:36;;;;;;;;;;;12.30;99.90;;;;;;5022488;28;989;-45
2022/01/07 09:29:03;;;;;;;;;;;12.30;99.90;;;;;;5021687;28;904;-45
2022/01/07 09:31:29;;;;;;;;;;;12.30;99.90;;;;;;5049090;28;1093;-45
2022/01/07 09:33:55;;;;;;;;;;;12.30;99.90;;;;;;5048572;28;1357;-45
2022/01/07 09:36:22;;;;;;;;;;;12.30;99.90;;;;;;4996125;28;1058;-45
2022/01/07 09:38:52;;;;;;;;;;;12.30;99.90;;;;;;4996962;28;956;-45
2022/01/07 09:41:18;;;;;;;;;;;12.30;99.90;;;;;;4949038;28;1902;-55
2022/01/07 09:43:46;;;;;;;;;;;12.30;99.90;;;;;;4998585;28;1249;-55
2022/01/07 09:46:13;;;;;;;;;;;12.30;99.90;;;;;;4982828;28;1392;-55
2022/01/07 09:48:39;;;;;;;;;;;12.20;99.90;;;;;;4965873;28;1321;-55
2022/01/07 09:51:07;;;;;;;;;;;12.20;99.90;;;;;;4981527;28;1046;-55
2022/01/07 09:53:35;;;;;;;;;;;12.20;99.90;;;;;;4996981;28;1405;-54
2022/01/07 09:56:04;;;;;;;;;;;12.20;99.90;;;;;;4998610;28;1465;-55
2022/01/07 09:58:33;;;;;;;;;;;12.20;99.90;;;;;;5014179;28;999;-54
2022/01/07 10:01:03;;;;;;;;;;;12.40;99.90;;;;;;4965796;28;1911;-55
2022/01/07 10:03:37;;;;;;;;;;;12.70;99.90;;;;;;4998233;28;1175;-55
2022/01/07 10:06:14;;;;;;;;;;;13.00;99.90;;;;;;4996759;28;884;-55
2022/01/07 10:08:40;;;;;;;;;;;13.40;99.90;;;;;;5042419;28;1413;-55
2022/01/07 10:11:25;;;;;;;;;;;13.70;99.90;;;;;;5018733;28;878;-55
2022/01/07 10:14:13;;;;;;;;;;;14.00;99.90;;;;;;5037478;28;1044;-54
2022/01/07 10:16:49;;;;;;;;;;;14.30;99.90;;;;;;5041187;28;1167;-54
2022/01/07 10:19:50;;;;;;;;;;;14.60;99.90;;;;;;5037371;28;944;-45
2022/01/07 10:22:16;;;;;;;;;;;14.80;99.90;;;;;;4964781;28;1053;-45
2022/01/07 10:25:01;;;;;;;;;;;15.00;99.90;;;;;;4975767;28;977;-45
2022/01/07 10:27:34;;;;;;;;;;;15.20;99.90;;;;;;4943247;28;996;-45
2022/01/07 10:30:11;;;;;;;;;;;15.40;99.90;;;;;;4954775;28;1069;-45
2022/01/07 10:32:37;;;;;;;;;;;15.60;99.90;;;;;;4940808;28;898;-45
2022/01/07 10:35:17;;;;;;;;;;;15.80;99.90;;;;;;4926065;28;825;-45
2022/01/07 10:37:48;;;;;;;;;;;16.00;99.90;;;;;;4957541;28;966;-55
2022/01/07 10:40:22;;;;;;;;;;;16.10;99.90;;;;;;4957681;28;1914;-55
2022/01/07 10:43:07;;;;;;;;;;;16.30;99.90;;;;;;4957311;28;938;-56
2022/01/07 10:45:33;;;;;;;;;;;16.50;99.90;;;;;;4956981;28;850;-55
2022/01/07 10:48:00;;;;;;;;;;;16.60;99.90;;;;;;4957023;28;908;-55
2022/01/07 10:50:27;;;;;;;;;;;16.70;99.90;;;;;;4957364;28;1492;-55
2022/01/07 10:53:15;;;;;;;;;;;16.60;99.90;;;;;;4957460;28;1008;-54
2022/01/07 10:56:02;;;;;;;;;;;16.50;99.90;;;;;;4915192;28;1213;-55
2022/01/07 10:58:28;;;;;;;;;;;16.30;99.90;;;;;;4918864;29;1293;-54
2022/01/07 11:00:56;;;;;;;;;;;16.20;99.90;;;;;;4918591;29;1911;-55
2022/01/07 11:03:31;;;;;;;;;;;16.10;99.90;;;;;;4919210;29;974;-54
2022/01/07 11:06:01;;;;;;;;;;;16.10;99.90;;;;;;4919117;29;990;-54
2022/01/07 11:08:28;;;;;;;;;;;16.00;99.90;;;;;;4919128;29;891;-55
2022/01/07 11:10:54;;;;;;;;;;;16.00;99.90;;;;;;4919840;29;984;-53
2022/01/07 11:13:21;;;;;;;;;;;15.90;99.90;;;;;;4918766;29;1109;-54
2022/01/07 11:15:48;;;;;;;;;;;15.90;99.90;;;;;;4918905;29;978;-55
2022/01/07 11:18:14;;;;;;;;;;;15.90;99.90;;;;;;4919222;29;850;-54
2022/01/07 11:20:41;;;;;;;;;;;15.80;99.90;;;;;;4918819;29;1974;-54
2022/01/07 11:23:08;;;;;;;;;;;15.80;99.90;;;;;;4918741;29;1026;-54
2022/01/07 11:25:34;;;;;;;;;;;15.80;99.90;;;;;;4918527;29;974;-54
2022/01/07 11:28:01;;;;;;;;;;;15.80;99.90;;;;;;4900625;29;936;-54
2022/01/07 11:30:31;;;;;;;;;;;15.80;99.90;;;;;;4918529;29;987;-54
2022/01/07 11:32:58;;;;;;;;;;;15.80;99.90;;;;;;4951798;28;985;-54
2022/01/07 11:35:24;;;;;;;;;;;15.80;99.90;;;;;;5012482;28;1085;-54
2022/01/07 11:38:10;;;;;;;;;;;15.80;99.90;;;;;;5052736;28;851;-54
2022/01/07 11:40:41;;;;;;;;;;;15.80;99.90;;;;;;5020547;28;1959;-53
2022/01/07 11:43:19;;;;;;;;;;;15.80;99.90;;;;;;5035017;28;826;-54
2022/01/07 11:45:46;;;;;;;;;;;15.80;99.90;;;;;;5034519;28;1202;-54
2022/01/07 11:48:26;;;;;;;;;;;15.80;99.90;;;;;;5017575;28;1304;-54
2022/01/07 11:51:14;;;;;;;;;;;15.90;99.90;;;;;;5029866;28;1211;-54
2022/01/07 11:53:43;;;;;;;;;;;15.90;99.90;;;;;;5048427;28;766;-55
2022/01/07 11:56:11;;;;;;;;;;;15.90;99.90;;;;;;5034685;28;1227;-54
2022/01/07 11:58:39;;;;;;;;;;;15.90;99.90;;;;;;5034583;28;934;-54
2022/01/07 12:01:05;;;;;;;;;;;15.90;99.90;;;;;;5033632;28;1964;-54
2022/01/07 12:03:53;;;;;;;;;;;15.90;99.90;;;;;;5036607;28;1085;-55
2022/01/07 12:06:45;;;;;;;;;;;15.90;99.90;;;;;;4922338;29;1060;-55
2022/01/07 12:09:16;;;;;;;;;;;15.90;99.90;;;;;;4920954;29;1036;-54
2022/01/07 12:11:43;;;;;;;;;;;15.90;99.90;;;;;;4916167;29;1098;-55
2022/01/07 12:14:15;;;;;;;;;;;15.90;99.90;;;;;;4920690;29;951;-55
2022/01/07 12:16:44;;;;;;;;;;;15.90;99.90;;;;;;4920664;29;1070;-55
2022/01/07 12:19:16;;;;;;;;;;;15.90;99.90;;;;;;4921218;29;1081;-55
2022/01/07 12:21:45;;;;;;;;;;;15.90;99.90;;;;;;4921231;29;1911;-54
2022/01/07 12:24:12;;;;;;;;;;;15.90;99.90;;;;;;4905499;29;1107;-55
2022/01/07 12:26:38;;;;;;;;;;;15.90;99.90;;;;;;4916498;29;1360;-54
2022/01/07 12:29:14;;;;;;;;;;;15.90;99.90;;;;;;4913960;29;1227;-55
2022/01/07 12:31:50;;;;;;;;;;;15.90;99.90;;;;;;4920990;29;1520;-55
2022/01/07 12:34:27;;;;;;;;;;;15.90;99.90;;;;;;4886862;29;1266;-55
2022/01/07 12:36:56;;;;;;;;;;;16.00;99.90;;;;;;4921093;29;958;-54
2022/01/07 12:39:26;;;;;;;;;;;16.00;99.90;;;;;;4920898;29;1086;-55
2022/01/07 12:41:53;;;;;;;;;;;16.00;99.90;;;;;;4919686;29;1968;-55
2022/01/07 12:44:19;;;;;;;;;;;16.10;99.90;;;;;;4959622;28;1546;-54
2022/01/07 12:46:56;;;;;;;;;;;16.10;99.90;;;;;;5037445;28;1178;-55
2022/01/07 12:49:42;;;;;;;;;;;16.10;99.90;;;;;;5013431;28;1834;-55
2022/01/07 12:52:27;;;;;;;;;;;16.10;99.90;;;;;;5013706;28;1427;-55
2022/01/07 12:55:13;;;;;;;;;;;16.20;99.90;;;;;;5053540;28;1223;-55
2022/01/07 12:57:44;;;;;;;;;;;16.20;99.90;;;;;;5037592;28;1184;-55
2022/01/07 13:00:28;;;;;;;;;;;16.20;99.90;;;;;;5056603;28;1910;-55
2022/01/07 13:03:02;;;;;;;;;;;16.20;99.90;;;;;;5036870;28;1194;-54
2022/01/07 13:05:31;;;;;;;;;;;16.20;99.90;;;;;;5038372;28;1294;-45
2022/01/07 13:08:00;;;;;;;;;;;16.20;99.90;;;;;;5011515;28;1478;-55
2022/01/07 13:10:38;;;;;;;;;;;16.30;99.90;;;;;;5023316;28;920;-55
2022/01/07 13:13:22;;;;;;;;;;;16.20;99.90;;;;;;5020739;28;1078;-54
2022/01/07 13:16:07;;;;;;;;;;;16.30;99.90;;;;;;5036917;28;1059;-45
2022/01/07 13:18:35;;;;;;;;;;;16.30;99.90;;;;;;5047941;28;1011;-45
2022/01/07 13:21:10;;;;;;;;;;;16.30;99.90;;;;;;5021045;28;1906;-45
2022/01/07 13:23:43;;;;;;;;;;;16.30;99.90;;;;;;5043215;28;1164;-44
2022/01/07 13:26:09;;;;;;;;;;;16.40;99.90;;;;;;5056821;28;1054;-45
2022/01/07 13:28:37;;;;;;;;;;;16.40;99.90;;;;;;5035846;28;1245;-45
2022/01/07 13:31:06;;;;;;;;;;;16.40;99.90;;;;;;5056532;28;889;-45
2022/01/07 13:33:32;;;;;;;;;;;16.40;99.90;;;;;;5042017;28;1032;-45
2022/01/07 13:36:09;;;;;;;;;;;16.40;99.90;;;;;;5021269;28;831;-45
2022/01/07 13:38:37;;;;;;;;;;;16.40;99.90;;;;;;5038942;28;1024;-44
2022/01/07 13:41:03;;;;;;;;;;;16.40;99.90;;;;;;5035894;28;1977;-55
2022/01/07 13:43:31;;;;;;;;;;;16.40;99.90;;;;;;5050059;28;1083;-55
2022/01/07 13:46:28;;;;;;;;;;;16.40;99.90;;;;;;5037232;28;1204;-55
2022/01/07 13:48:55;;;;;;;;;;;16.40;99.90;;;;;;4974838;28;1137;-45
2022/01/07 13:51:30;;;;;;;;;;;16.40;99.90;;;;;;4959122;28;1211;-45
2022/01/07 13:54:20;;;;;;;;;;;16.40;99.90;;;;;;4958480;28;1437;-45
2022/01/07 13:57:02;;;;;;;;;;;16.30;99.90;;;;;;4943448;28;1063;-45
2022/01/07 13:59:44;;;;;;;;;;;16.30;99.90;;;;;;4932645;28;1373;-55
2022/01/07 14:02:14;;;;;;;;;;;16.30;99.90;;;;;;4976305;28;1903;-54
2022/01/07 14:04:42;;;;;;;;;;;16.30;99.90;;;;;;4976833;28;866;-55
2022/01/07 14:07:20;;;;;;;;;;;16.20;99.90;;;;;;4977471;28;1123;-54
2022/01/07 14:10:13;;;;;;;;;;;16.20;99.90;;;;;;4977856;28;951;-55
2022/01/07 14:13:00;;;;;;;;;;;16.30;99.90;;;;;;4956304;28;1526;-55
2022/01/07 14:15:32;;;;;;;;;;;16.20;99.90;;;;;;4978434;28;907;-55
2022/01/07 14:18:16;;;;;;;;;;;16.20;99.90;;;;;;4977384;28;1008;-55
2022/01/07 14:21:03;;;;;;;;;;;16.20;99.90;;;;;;4976923;28;1902;-53
2022/01/07 14:23:31;;;;;;;;;;;16.20;99.90;;;;;;4945225;28;933;-54
2022/01/07 14:26:07;;;;;;;;;;;16.20;99.90;;;;;;5008802;28;1158;-45
2022/01/07 14:28:34;;;;;;;;;;;16.20;99.90;;;;;;5017730;28;833;-45
2022/01/07 14:31:02;;;;;;;;;;;16.20;99.90;;;;;;5017808;28;869;-54
2022/01/07 14:33:30;;;;;;;;;;;16.20;99.90;;;;;;5017522;28;954;-54
2022/01/07 14:35:57;;;;;;;;;;;16.20;99.90;;;;;;5016581;28;906;-55
2022/01/07 14:38:25;;;;;;;;;;;16.20;99.90;;;;;;5017251;28;917;-55
2022/01/07 14:40:52;;;;;;;;;;;16.20;99.90;;;;;;5017545;28;1970;-55
2022/01/07 14:43:18;;;;;;;;;;;16.20;99.90;;;;;;5015747;28;988;-54
2022/01/07 14:45:47;;;;;;;;;;;16.20;99.90;;;;;;5017446;28;1001;-54
2022/01/07 14:48:14;;;;;;;;;;;16.20;99.90;;;;;;5017363;28;919;-45
2022/01/07 14:50:39;;;;;;;;;;;16.20;99.90;;;;;;5017380;28;1766;-45
2022/01/07 14:53:06;;;;;;;;;;;16.30;99.90;;;;;;4999789;28;1098;-54
2022/01/07 14:55:34;;;;;;;;;;;16.30;99.90;;;;;;5017437;28;1010;-45
2022/01/07 14:58:04;;;;;;;;;;;16.30;99.90;;;;;;5012924;28;914;-55
2022/01/07 15:00:31;;;;;;;;;;;16.30;99.90;;;;;;5014727;28;1965;-45